Arcturus, Minnesota
Current Conditions -  °F | °C
As of 8:35 PM on Friday 31 Oct 2014 (Local Time) from KGPZ Reporting Station
Clear Clear  
Wind Chill: 25°   Ceiling: Unl
Heat Index: 25°   Visibility: 10mi
Dew Point: 16°   Wind: 3mph
Humidity: 69%   Direction: 170°S
Pressure: 30.44"   Gusts: NA
Location:  47.3121°N, 93.3823°W
Report Text: KGPZ 010135Z AUTO 17003KT 10SM CLR M04/M09 A3044 RMK AO1
Loading
Personal Weather Stations






























Interactive Weather Map
Tropical Storm Tracking
New forecast layout! Learn more

10-Day Weather Forecast

Advertisements
Track Severe Weather on mobile